Time;durP1;ratioP1;P1;durP2;ratioP2;P2;SDS_P1;SDS_P2;PMS_P1;PMS_P2;Temp;Humidity;BMP_temperature;BMP_pressure;BME280_temperature;BME280_humidity;BME280_pressure;Samples;Min_cycle;Max_cycle;Signal;HPM_P1;HPM_P2
2023/07/07 00:01:35;;;;;;;;;;;14.80;99.90;;;;;;6252198;22;19910;-89
2023/07/07 00:04:13;;;;;;;;;;;14.80;99.90;;;;;;6277293;22;19929;-90
2023/07/07 00:06:39;;;;;;;;;;;14.80;99.90;;;;;;6278452;22;19907;-91
2023/07/07 00:09:05;;;;;;;;;;;14.90;99.90;;;;;;6279510;22;19913;-90
2023/07/07 00:11:31;;;;;;;;;;;14.90;99.90;;;;;;6279436;22;19911;-91
2023/07/07 00:13:57;;;;;;;;;;;15.00;99.90;;;;;;6279032;22;19907;-89
2023/07/07 00:16:27;;;;;;;;;;;14.90;99.90;;;;;;6279600;22;19917;-90
2023/07/07 00:18:57;;;;;;;;;;;15.00;99.90;;;;;;6280117;22;19922;-90
2023/07/07 00:21:24;;;;;;;;;;;15.00;99.90;;;;;;6253546;22;19990;-90
2023/07/07 00:23:54;;;;;;;;;;;15.00;99.90;;;;;;6279947;22;20290;-91
2023/07/07 00:26:21;;;;;;;;;;;15.00;99.90;;;;;;6279530;22;19915;-91
2023/07/07 00:28:47;;;;;;;;;;;15.00;99.90;;;;;;6253558;22;19953;-89
2023/07/07 00:31:13;;;;;;;;;;;15.00;99.90;;;;;;6279906;22;19911;-90
2023/07/07 00:33:39;;;;;;;;;;;14.90;99.90;;;;;;6279383;22;19907;-90
2023/07/07 00:36:05;;;;;;;;;;;14.90;99.90;;;;;;6279646;22;19915;-90
2023/07/07 00:38:31;;;;;;;;;;;14.90;99.90;;;;;;6279732;22;19911;-91
2023/07/07 00:41:01;;;;;;;;;;;14.90;99.90;;;;;;6279221;22;19942;-91
2023/07/07 00:43:27;;;;;;;;;;;14.80;99.90;;;;;;6279104;22;19907;-90
2023/07/07 00:46:08;;;;;;;;;;;14.80;99.90;;;;;;6279471;22;19960;-91
2023/07/07 00:48:36;;;;;;;;;;;14.70;99.90;;;;;;6279832;22;19986;-91
2023/07/07 00:51:06;;;;;;;;;;;14.70;99.90;;;;;;6280001;22;20307;-90
2023/07/07 00:53:32;;;;;;;;;;;14.70;99.90;;;;;;6279342;22;20271;-90
2023/07/07 00:56:00;;;;;;;;;;;14.60;99.90;;;;;;6279466;22;20316;-92
2023/07/07 00:58:26;;;;;;;;;;;14.50;99.90;;;;;;6278269;22;19939;-90
2023/07/07 01:00:54;;;;;;;;;;;14.60;99.90;;;;;;6279832;22;19907;-90
2023/07/07 01:03:25;;;;;;;;;;;14.60;99.90;;;;;;6280910;22;20005;-91
2023/07/07 01:05:54;;;;;;;;;;;14.60;99.90;;;;;;6280188;22;19908;-90
2023/07/07 01:08:21;;;;;;;;;;;14.70;99.90;;;;;;6279680;22;20312;-90
2023/07/07 01:10:47;;;;;;;;;;;14.60;99.90;;;;;;6279402;22;19907;-90
2023/07/07 01:13:13;;;;;;;;;;;14.50;99.90;;;;;;6278975;22;19961;-90
2023/07/07 01:15:53;;;;;;;;;;;14.50;99.90;;;;;;6279502;22;19923;-91
2023/07/07 01:18:19;;;;;;;;;;;14.50;99.90;;;;;;6278831;22;19911;-90
2023/07/07 01:21:01;;;;;;;;;;;14.50;99.90;;;;;;6279089;22;19903;-90
2023/07/07 01:23:46;;;;;;;;;;;14.50;99.90;;;;;;6279071;22;19930;-90
2023/07/07 01:26:14;;;;;;;;;;;14.50;99.90;;;;;;6278716;22;19911;-91
2023/07/07 01:28:40;;;;;;;;;;;14.50;99.90;;;;;;6278991;22;19912;-91
2023/07/07 01:31:13;;;;;;;;;;;14.50;99.90;;;;;;6254733;22;20334;-90
2023/07/07 01:33:40;;;;;;;;;;;14.40;99.90;;;;;;6279381;22;19935;-90
2023/07/07 01:36:06;;;;;;;;;;;14.40;99.90;;;;;;6279009;22;19907;-90
2023/07/07 01:38:37;;;;;;;;;;;14.50;99.90;;;;;;6279134;22;19911;-90
2023/07/07 01:41:09;;;;;;;;;;;14.50;99.90;;;;;;6253526;22;19934;-89
2023/07/07 01:43:39;;;;;;;;;;;14.50;99.90;;;;;;6253683;22;20270;-91
2023/07/07 01:46:18;;;;;;;;;;;14.60;99.90;;;;;;6279892;22;20261;-90
2023/07/07 01:48:46;;;;;;;;;;;14.60;99.90;;;;;;6279386;22;19933;-90
2023/07/07 01:51:13;;;;;;;;;;;14.70;99.90;;;;;;6279474;22;20085;-91
2023/07/07 01:53:40;;;;;;;;;;;14.80;99.90;;;;;;6278875;22;19907;-91
2023/07/07 01:56:07;;;;;;;;;;;14.90;99.90;;;;;;6278384;22;19914;-89
2023/07/07 01:58:34;;;;;;;;;;;14.90;99.90;;;;;;6278650;22;19922;-91
2023/07/07 02:01:01;;;;;;;;;;;14.90;99.90;;;;;;6279275;22;19907;-91
2023/07/07 02:03:27;;;;;;;;;;;14.80;99.90;;;;;;6278541;22;19935;-90
2023/07/07 02:05:53;;;;;;;;;;;14.80;99.90;;;;;;6279336;22;19930;-89
2023/07/07 02:08:19;;;;;;;;;;;14.80;99.90;;;;;;6279138;22;19908;-90
2023/07/07 02:10:45;;;;;;;;;;;14.80;99.90;;;;;;6279190;22;19907;-90
2023/07/07 02:13:11;;;;;;;;;;;14.80;99.90;;;;;;6279404;22;19964;-89
2023/07/07 02:15:37;;;;;;;;;;;14.80;99.90;;;;;;6253114;22;19908;-90
2023/07/07 02:18:03;;;;;;;;;;;14.80;99.90;;;;;;6279194;22;19915;-91
2023/07/07 02:20:29;;;;;;;;;;;14.80;99.90;;;;;;6278426;22;19918;-91
2023/07/07 02:22:55;;;;;;;;;;;14.70;99.90;;;;;;6278203;22;19914;-89
2023/07/07 02:25:22;;;;;;;;;;;14.80;99.90;;;;;;6279366;22;19939;-90
2023/07/07 02:27:47;;;;;;;;;;;14.80;99.90;;;;;;6278352;22;19915;-89
2023/07/07 02:30:14;;;;;;;;;;;14.80;99.90;;;;;;6304779;22;19911;-91
2023/07/07 02:33:01;;;;;;;;;;;14.70;99.90;;;;;;6278737;22;20365;-91
2023/07/07 02:35:27;;;;;;;;;;;14.70;99.90;;;;;;6304646;22;20312;-91
2023/07/07 02:37:55;;;;;;;;;;;14.70;99.90;;;;;;6278300;22;19937;-91
2023/07/07 02:40:21;;;;;;;;;;;14.70;99.90;;;;;;6278551;22;19911;-91
2023/07/07 02:42:47;;;;;;;;;;;14.80;99.90;;;;;;6278279;22;19907;-90
2023/07/07 02:45:14;;;;;;;;;;;14.80;99.90;;;;;;6278601;22;20307;-90
2023/07/07 02:47:39;;;;;;;;;;;14.70;99.90;;;;;;6278886;22;19935;-90
2023/07/07 02:50:05;;;;;;;;;;;14.70;99.90;;;;;;6252957;22;19904;-91
2023/07/07 02:52:31;;;;;;;;;;;14.70;99.90;;;;;;6278232;22;19907;-90
2023/07/07 02:54:57;;;;;;;;;;;14.70;99.90;;;;;;6278163;22;19949;-90
2023/07/07 02:57:23;;;;;;;;;;;14.70;99.90;;;;;;6278402;22;19999;-91
2023/07/07 02:59:49;;;;;;;;;;;14.60;99.90;;;;;;6278194;22;19949;-90
2023/07/07 03:02:15;;;;;;;;;;;14.70;99.90;;;;;;6278927;22;19990;-90
2023/07/07 03:04:41;;;;;;;;;;;14.60;99.90;;;;;;6278294;22;19914;-92
2023/07/07 03:07:07;;;;;;;;;;;14.60;99.90;;;;;;6253221;22;19903;-90
2023/07/07 03:09:33;;;;;;;;;;;14.50;99.90;;;;;;6279444;22;19911;-91
2023/07/07 03:12:02;;;;;;;;;;;14.50;99.90;;;;;;6278641;22;19907;-90
2023/07/07 03:14:28;;;;;;;;;;;14.40;99.90;;;;;;6278988;22;19934;-90
2023/07/07 03:16:56;;;;;;;;;;;14.40;99.90;;;;;;6278810;22;19957;-90
2023/07/07 03:19:27;;;;;;;;;;;14.40;99.90;;;;;;6277656;22;20250;-90
2023/07/07 03:22:06;;;;;;;;;;;14.20;99.90;;;;;;6280542;22;19978;-89
2023/07/07 03:24:54;;;;;;;;;;;14.10;99.90;;;;;;6263666;22;19935;-89
2023/07/07 03:27:29;;;;;;;;;;;14.10;99.90;;;;;;6255254;22;20375;-87
2023/07/07 03:29:55;;;;;;;;;;;14.20;99.90;;;;;;6250733;22;20235;-86
2023/07/07 03:32:22;;;;;;;;;;;14.20;99.90;;;;;;6275890;22;19914;-86
2023/07/07 03:34:53;;;;;;;;;;;14.20;99.90;;;;;;6302029;22;19918;-87
2023/07/07 03:37:22;;;;;;;;;;;14.20;99.90;;;;;;6251511;22;19907;-86
2023/07/07 03:39:48;;;;;;;;;;;14.30;99.90;;;;;;6251096;22;20319;-86
2023/07/07 03:42:14;;;;;;;;;;;14.30;99.90;;;;;;6250943;22;19907;-87
2023/07/07 03:44:40;;;;;;;;;;;14.30;99.90;;;;;;6280892;22;19938;-86
2023/07/07 03:47:06;;;;;;;;;;;14.30;99.90;;;;;;6263168;22;19903;-86
2023/07/07 03:49:31;;;;;;;;;;;14.40;99.90;;;;;;6262959;22;19911;-87
2023/07/07 03:51:58;;;;;;;;;;;14.50;99.90;;;;;;6261324;22;19911;-86
2023/07/07 03:54:23;;;;;;;;;;;14.50;99.90;;;;;;6287648;22;19913;-86
2023/07/07 03:56:50;;;;;;;;;;;14.50;99.90;;;;;;6278177;22;19907;-87
2023/07/07 04:02:44;;;;;;;;;;;14.60;99.90;;;;;;6277618;22;19933;-86
2023/07/07 04:05:10;;;;;;;;;;;14.60;99.90;;;;;;6276221;22;20550;-86
2023/07/07 04:07:36;;;;;;;;;;;14.60;99.90;;;;;;6250717;22;19907;-87
2023/07/07 04:10:03;;;;;;;;;;;14.60;99.90;;;;;;6250406;22;19939;-86
2023/07/07 04:12:29;;;;;;;;;;;14.80;99.90;;;;;;6276653;22;19953;-87
2023/07/07 04:14:54;;;;;;;;;;;14.80;99.90;;;;;;6276379;22;19914;-86
2023/07/07 04:17:30;;;;;;;;;;;14.90;99.90;;;;;;6276291;22;19907;-87
2023/07/07 04:19:56;;;;;;;;;;;14.90;99.90;;;;;;6276284;22;19911;-87
2023/07/07 04:22:22;;;;;;;;;;;14.90;99.90;;;;;;6276153;22;19945;-86
2023/07/07 04:25:05;;;;;;;;;;;15.00;99.90;;;;;;6301851;22;19918;-86
2023/07/07 04:27:31;;;;;;;;;;;15.00;99.90;;;;;;6276235;22;19907;-87
2023/07/07 04:29:57;;;;;;;;;;;15.10;99.90;;;;;;6302187;22;20372;-86
2023/07/07 04:32:23;;;;;;;;;;;15.20;99.90;;;;;;6277054;22;19933;-87
2023/07/07 04:34:49;;;;;;;;;;;15.30;99.90;;;;;;6277442;22;19953;-87
2023/07/07 04:37:14;;;;;;;;;;;15.30;99.90;;;;;;6250566;22;19907;-87
2023/07/07 04:39:41;;;;;;;;;;;15.40;99.90;;;;;;6252549;22;19961;-86
2023/07/07 04:42:07;;;;;;;;;;;15.40;99.90;;;;;;6275708;22;19908;-86
2023/07/07 04:44:33;;;;;;;;;;;15.50;99.90;;;;;;6275814;22;20437;-87
2023/07/07 04:46:58;;;;;;;;;;;15.50;99.90;;;;;;6301727;22;19907;-87
2023/07/07 04:49:26;;;;;;;;;;;15.70;99.90;;;;;;6249903;22;19988;-87
2023/07/07 04:51:52;;;;;;;;;;;15.70;99.90;;;;;;6249492;22;20313;-86
2023/07/07 04:54:18;;;;;;;;;;;15.70;99.90;;;;;;6275775;22;19935;-86
2023/07/07 04:56:47;;;;;;;;;;;15.90;99.90;;;;;;6302656;22;19957;-87
2023/07/07 04:59:13;;;;;;;;;;;15.90;99.90;;;;;;6276655;22;19922;-86
2023/07/07 05:01:40;;;;;;;;;;;16.00;99.90;;;;;;6277036;22;19907;-87
2023/07/07 05:04:07;;;;;;;;;;;16.10;99.90;;;;;;6276702;22;19914;-87
2023/07/07 05:06:34;;;;;;;;;;;16.20;99.90;;;;;;6276598;22;19950;-87
2023/07/07 05:09:01;;;;;;;;;;;16.20;99.90;;;;;;6276935;22;19914;-86
2023/07/07 05:11:28;;;;;;;;;;;16.30;99.90;;;;;;6302705;22;19915;-86
2023/07/07 05:13:54;;;;;;;;;;;16.40;99.90;;;;;;6302661;22;20227;-87
2023/07/07 05:16:21;;;;;;;;;;;16.40;99.90;;;;;;6303274;22;20219;-87
2023/07/07 05:18:47;;;;;;;;;;;16.50;99.90;;;;;;6302471;22;19911;-87
2023/07/07 05:21:14;;;;;;;;;;;16.70;99.90;;;;;;6277182;22;19989;-87
2023/07/07 05:23:39;;;;;;;;;;;16.80;99.90;;;;;;6277246;22;20269;-87
2023/07/07 05:26:06;;;;;;;;;;;16.90;99.90;;;;;;6277022;22;19990;-87
2023/07/07 05:28:32;;;;;;;;;;;17.10;99.90;;;;;;6276301;22;19911;-87
2023/07/07 05:30:58;;;;;;;;;;;17.20;99.90;;;;;;6276560;22;19911;-87
2023/07/07 05:33:24;;;;;;;;;;;17.30;99.90;;;;;;6276154;22;19907;-87
2023/07/07 05:35:51;;;;;;;;;;;17.50;99.90;;;;;;6276285;22;20369;-87
2023/07/07 05:38:21;;;;;;;;;;;17.50;99.90;;;;;;6275897;22;20326;-87
2023/07/07 05:40:47;;;;;;;;;;;17.60;99.90;;;;;;6276368;22;19908;-88
2023/07/07 05:43:13;;;;;;;;;;;17.80;99.90;;;;;;6302180;22;19933;-88
2023/07/07 05:45:39;;;;;;;;;;;17.90;99.90;;;;;;6276319;22;19934;-86
2023/07/07 05:48:05;;;;;;;;;;;18.00;99.90;;;;;;6251054;22;20231;-88
2023/07/07 05:50:34;;;;;;;;;;;18.20;99.90;;;;;;6276092;22;19907;-88
2023/07/07 05:53:01;;;;;;;;;;;18.20;99.90;;;;;;6251485;22;19907;-88
2023/07/07 05:55:28;;;;;;;;;;;18.40;99.90;;;;;;6276502;22;19912;-88
2023/07/07 05:57:57;;;;;;;;;;;18.40;99.90;;;;;;6277016;22;19941;-87
2023/07/07 06:00:23;;;;;;;;;;;18.60;99.90;;;;;;6276413;22;19956;-87
2023/07/07 06:03:19;;;;;;;;;;;18.70;99.90;;;;;;6275853;22;19972;-87
2023/07/07 06:08:53;;;;;;;;;;;18.80;99.90;;;;;;6302831;22;20351;-87
2023/07/07 06:11:22;;;;;;;;;;;18.90;99.90;;;;;;6277084;22;19953;-86
2023/07/07 06:13:48;;;;;;;;;;;19.00;99.90;;;;;;6251186;22;20231;-87
2023/07/07 06:16:14;;;;;;;;;;;19.10;99.90;;;;;;6250288;22;19904;-87
2023/07/07 06:18:39;;;;;;;;;;;19.10;99.90;;;;;;6276245;22;19911;-87
2023/07/07 06:21:05;;;;;;;;;;;19.20;99.90;;;;;;6251213;22;19986;-88
2023/07/07 06:23:31;;;;;;;;;;;19.30;99.90;;;;;;6276373;22;19911;-87
2023/07/07 06:25:57;;;;;;;;;;;19.30;99.90;;;;;;6276565;22;19990;-87
2023/07/07 06:28:23;;;;;;;;;;;19.40;99.90;;;;;;6302042;22;20001;-88
2023/07/07 06:34:18;;;;;;;;;;;19.60;99.90;;;;;;6277957;22;20576;-88
2023/07/07 06:36:43;;;;;;;;;;;19.70;99.90;;;;;;6276221;22;19911;-88
2023/07/07 06:39:12;;;;;;;;;;;19.70;99.90;;;;;;6276310;22;20028;-88
2023/07/07 06:41:40;;;;;;;;;;;19.80;99.90;;;;;;6276237;22;19907;-87
2023/07/07 06:44:25;;;;;;;;;;;19.80;99.90;;;;;;6302381;22;19907;-87
2023/07/07 06:46:51;;;;;;;;;;;19.90;99.90;;;;;;6276659;22;19957;-87
2023/07/07 06:49:18;;;;;;;;;;;19.90;99.90;;;;;;6276786;22;19903;-87
2023/07/07 06:51:44;;;;;;;;;;;20.00;99.90;;;;;;6276517;22;19907;-87
2023/07/07 06:54:10;;;;;;;;;;;20.00;99.90;;;;;;6276219;22;20475;-88
2023/07/07 06:56:37;;;;;;;;;;;20.00;99.90;;;;;;6276479;22;20321;-86
2023/07/07 06:59:03;;;;;;;;;;;20.10;99.90;;;;;;6276217;22;20330;-87
2023/07/07 07:01:29;;;;;;;;;;;20.10;99.90;;;;;;6275972;22;20259;-88
2023/07/07 07:03:56;;;;;;;;;;;20.10;99.90;;;;;;6276374;22;19911;-87
2023/07/07 07:06:22;;;;;;;;;;;20.20;99.90;;;;;;6275639;22;19977;-87
2023/07/07 07:08:48;;;;;;;;;;;20.30;99.90;;;;;;6276087;22;20323;-88
2023/07/07 07:11:16;;;;;;;;;;;20.30;99.90;;;;;;6276025;22;19907;-88
2023/07/07 07:13:42;;;;;;;;;;;20.40;99.90;;;;;;6276087;22;20281;-87
2023/07/07 07:16:08;;;;;;;;;;;20.50;99.90;;;;;;6275709;22;19986;-87
2023/07/07 07:18:34;;;;;;;;;;;20.70;99.90;;;;;;6275613;22;19931;-87
2023/07/07 07:21:00;;;;;;;;;;;20.90;99.90;;;;;;6275760;22;19907;-87
2023/07/07 07:23:26;;;;;;;;;;;21.40;99.90;;;;;;6275855;22;19908;-87
2023/07/07 07:25:52;;;;;;;;;;;22.60;97.80;;;;;;6275542;22;19934;-86
2023/07/07 07:28:17;;;;;;;;;;;23.70;95.80;;;;;;6275809;22;19907;-86
2023/07/07 07:30:43;;;;;;;;;;;24.40;94.60;;;;;;6276046;22;20220;-86
2023/07/07 07:33:14;;;;;;;;;;;25.30;92.80;;;;;;6302527;22;20211;-88
2023/07/07 07:35:40;;;;;;;;;;;26.10;90.60;;;;;;6276383;22;19930;-87
2023/07/07 07:38:06;;;;;;;;;;;27.50;86.10;;;;;;6275708;22;19904;-88
2023/07/07 07:40:32;;;;;;;;;;;28.20;82.90;;;;;;6275916;22;19911;-88
2023/07/07 07:43:04;;;;;;;;;;;27.90;78.90;;;;;;6275848;22;19908;-87
2023/07/07 07:45:49;;;;;;;;;;;25.90;81.40;;;;;;6276766;22;19907;-87
2023/07/07 07:48:18;;;;;;;;;;;24.20;86.70;;;;;;6250386;22;20023;-87
2023/07/07 07:50:44;;;;;;;;;;;23.40;90.00;;;;;;6275886;22;20315;-87
2023/07/07 07:53:11;;;;;;;;;;;22.70;91.30;;;;;;6276260;22;19908;-87
2023/07/07 07:55:36;;;;;;;;;;;22.40;92.70;;;;;;6276403;22;19930;-88
2023/07/07 07:58:03;;;;;;;;;;;22.20;92.10;;;;;;6276062;22;20039;-85
2023/07/07 08:00:29;;;;;;;;;;;22.20;93.10;;;;;;6275997;22;19983;-87
2023/07/07 08:02:54;;;;;;;;;;;22.30;93.80;;;;;;6275611;22;19931;-87
2023/07/07 08:05:20;;;;;;;;;;;23.60;93.20;;;;;;6276169;22;19915;-87
2023/07/07 08:07:46;;;;;;;;;;;25.20;90.40;;;;;;6301778;22;19929;-87
2023/07/07 08:10:12;;;;;;;;;;;26.50;89.40;;;;;;6275311;22;19957;-87
2023/07/07 08:12:38;;;;;;;;;;;27.20;85.90;;;;;;6276194;22;19904;-87
2023/07/07 08:15:06;;;;;;;;;;;28.30;84.00;;;;;;6275770;22;19941;-88
2023/07/07 08:17:33;;;;;;;;;;;28.80;82.60;;;;;;6276356;22;20338;-87
2023/07/07 08:23:27;;;;;;;;;;;28.80;80.20;;;;;;6277644;22;19934;-86
2023/07/07 08:25:52;;;;;;;;;;;28.10;80.00;;;;;;6275808;22;20247;-87
2023/07/07 08:28:18;;;;;;;;;;;28.70;79.00;;;;;;6250988;22;19911;-88
2023/07/07 08:30:59;;;;;;;;;;;29.70;78.10;;;;;;6277624;22;19950;-88
2023/07/07 08:33:25;;;;;;;;;;;30.30;76.70;;;;;;6277526;22;19990;-88
2023/07/07 08:35:51;;;;;;;;;;;30.70;72.50;;;;;;6277576;22;19992;-88
2023/07/07 08:38:17;;;;;;;;;;;30.80;71.60;;;;;;6277463;22;19957;-88
2023/07/07 08:40:53;;;;;;;;;;;30.30;71.10;;;;;;6277976;22;19915;-87
2023/07/07 08:43:19;;;;;;;;;;;29.90;70.80;;;;;;6277338;22;20349;-88
2023/07/07 08:45:59;;;;;;;;;;;29.50;72.20;;;;;;6277718;22;19907;-87
2023/07/07 08:48:27;;;;;;;;;;;29.30;71.70;;;;;;6277298;22;19982;-88
2023/07/07 08:50:57;;;;;;;;;;;29.80;73.00;;;;;;6277984;22;19966;-88
2023/07/07 08:53:30;;;;;;;;;;;30.00;71.40;;;;;;6277817;22;19937;-87
2023/07/07 08:56:16;;;;;;;;;;;30.10;71.70;;;;;;6277420;22;19918;-88
2023/07/07 08:58:45;;;;;;;;;;;30.30;72.00;;;;;;6276784;22;19918;-87
2023/07/07 09:01:11;;;;;;;;;;;31.00;70.70;;;;;;6251853;22;19914;-87
2023/07/07 09:03:37;;;;;;;;;;;31.50;70.60;;;;;;6277920;22;19907;-88
2023/07/07 09:06:12;;;;;;;;;;;31.20;69.70;;;;;;6278028;22;20349;-87
2023/07/07 09:08:44;;;;;;;;;;;31.50;69.80;;;;;;6278807;22;20315;-88
2023/07/07 09:11:28;;;;;;;;;;;31.50;68.50;;;;;;6251872;22;19907;-88
2023/07/07 09:13:56;;;;;;;;;;;32.10;69.00;;;;;;6277749;22;19907;-88
2023/07/07 09:16:24;;;;;;;;;;;32.20;67.30;;;;;;6303022;22;20208;-88
2023/07/07 09:18:56;;;;;;;;;;;31.50;67.90;;;;;;6276896;22;19911;-87
2023/07/07 09:21:42;;;;;;;;;;;30.10;69.50;;;;;;6276676;22;19908;-87
2023/07/07 09:27:43;;;;;;;;;;;29.40;72.10;;;;;;6279220;22;19915;-88
2023/07/07 09:30:27;;;;;;;;;;;30.30;69.40;;;;;;6276637;22;19907;-87
2023/07/07 09:32:53;;;;;;;;;;;30.00;71.40;;;;;;6277155;22;19922;-86
2023/07/07 09:35:20;;;;;;;;;;;30.20;71.70;;;;;;6251525;22;19911;-87
2023/07/07 09:37:46;;;;;;;;;;;30.80;68.50;;;;;;6303371;22;19907;-87
2023/07/07 09:40:17;;;;;;;;;;;30.70;69.70;;;;;;6276995;22;19994;-88
2023/07/07 09:42:49;;;;;;;;;;;30.30;69.30;;;;;;6277728;22;19907;-87
2023/07/07 09:45:17;;;;;;;;;;;31.20;67.70;;;;;;6277472;22;19914;-88
2023/07/07 09:47:58;;;;;;;;;;;31.50;67.70;;;;;;6277319;22;19911;-88
2023/07/07 09:50:26;;;;;;;;;;;32.00;66.00;;;;;;6251662;22;19907;-85
2023/07/07 09:52:56;;;;;;;;;;;32.10;66.40;;;;;;6277218;22;19929;-87
2023/07/07 09:55:24;;;;;;;;;;;31.70;65.20;;;;;;6303225;22;19908;-88
2023/07/07 09:58:04;;;;;;;;;;;32.50;64.10;;;;;;6277106;22;19907;-88
2023/07/07 10:00:31;;;;;;;;;;;32.90;64.80;;;;;;6303283;22;20243;-87
2023/07/07 10:02:57;;;;;;;;;;;32.80;63.20;;;;;;6303035;22;19982;-88
2023/07/07 10:05:26;;;;;;;;;;;32.90;62.20;;;;;;6277180;22;19997;-88
2023/07/07 10:07:52;;;;;;;;;;;31.40;61.50;;;;;;6277008;22;19914;-87
2023/07/07 10:10:18;;;;;;;;;;;31.40;62.10;;;;;;6277055;22;19907;-87
2023/07/07 10:12:44;;;;;;;;;;;31.40;63.10;;;;;;6277201;22;20331;-88
2023/07/07 10:15:29;;;;;;;;;;;31.50;62.50;;;;;;6276705;22;19934;-87
2023/07/07 10:17:57;;;;;;;;;;;30.50;62.70;;;;;;6276396;22;19915;-87
2023/07/07 10:20:23;;;;;;;;;;;30.70;63.40;;;;;;6276443;22;19922;-87
2023/07/07 10:22:49;;;;;;;;;;;30.90;60.60;;;;;;6276703;22;19911;-89
2023/07/07 10:25:15;;;;;;;;;;;30.90;61.00;;;;;;6276965;22;20267;-89
2023/07/07 10:27:50;;;;;;;;;;;31.20;61.90;;;;;;6277080;22;19907;-88
2023/07/07 10:30:16;;;;;;;;;;;31.00;59.70;;;;;;6276385;22;19986;-89
2023/07/07 10:32:42;;;;;;;;;;;31.00;61.50;;;;;;6276986;22;20503;-88
2023/07/07 10:35:08;;;;;;;;;;;30.60;60.80;;;;;;6276953;22;19907;-88
2023/07/07 10:37:36;;;;;;;;;;;30.30;63.50;;;;;;6276125;22;19911;-88
2023/07/07 10:40:02;;;;;;;;;;;30.20;65.30;;;;;;6275764;22;19926;-88
2023/07/07 10:42:29;;;;;;;;;;;30.40;61.00;;;;;;6276688;22;19903;-87
2023/07/07 10:44:57;;;;;;;;;;;30.50;60.40;;;;;;6302114;22;19907;-88
2023/07/07 10:47:28;;;;;;;;;;;29.80;61.00;;;;;;6301490;22;19950;-89
2023/07/07 10:49:56;;;;;;;;;;;29.70;62.50;;;;;;6250457;22;19915;-88
2023/07/07 10:52:21;;;;;;;;;;;29.90;60.40;;;;;;6276334;22;19907;-88
2023/07/07 10:55:01;;;;;;;;;;;30.10;60.00;;;;;;6250426;22;20237;-88
2023/07/07 10:57:36;;;;;;;;;;;30.20;59.80;;;;;;6250861;22;19907;-90
2023/07/07 11:00:07;;;;;;;;;;;30.00;60.30;;;;;;6276262;22;19918;-88
2023/07/07 11:02:46;;;;;;;;;;;30.60;59.90;;;;;;6276993;22;19911;-87
2023/07/07 11:05:11;;;;;;;;;;;31.10;58.80;;;;;;6276513;22;19907;-87
2023/07/07 11:07:44;;;;;;;;;;;31.10;58.10;;;;;;6276548;22;19914;-89
2023/07/07 11:10:28;;;;;;;;;;;31.10;56.90;;;;;;6249877;22;19986;-88
2023/07/07 11:13:09;;;;;;;;;;;31.20;56.60;;;;;;6275465;22;19943;-88
2023/07/07 11:15:45;;;;;;;;;;;31.10;56.40;;;;;;6276064;22;19907;-88
2023/07/07 11:18:29;;;;;;;;;;;31.50;56.90;;;;;;6276368;22;19918;-88
2023/07/07 11:21:14;;;;;;;;;;;31.70;55.10;;;;;;6276173;22;19915;-86
2023/07/07 11:23:43;;;;;;;;;;;31.90;54.80;;;;;;6275753;22;19908;-87
2023/07/07 11:26:21;;;;;;;;;;;32.00;54.20;;;;;;6276159;22;19911;-88
2023/07/07 11:29:06;;;;;;;;;;;31.70;54.80;;;;;;6250266;22;19908;-89
2023/07/07 11:31:40;;;;;;;;;;;31.60;55.10;;;;;;6276205;22;20489;-89
2023/07/07 11:34:37;;;;;;;;;;;31.40;57.20;;;;;;6275253;22;20644;-88
2023/07/07 11:37:18;;;;;;;;;;;31.20;55.60;;;;;;6275897;22;20178;-88
2023/07/07 11:39:56;;;;;;;;;;;31.90;55.90;;;;;;6250422;22;19947;-88
2023/07/07 11:42:40;;;;;;;;;;;32.20;53.60;;;;;;6250258;22;19907;-88
2023/07/07 11:45:31;;;;;;;;;;;32.20;54.10;;;;;;6301137;22;19941;-89
2023/07/07 11:48:03;;;;;;;;;;;32.40;54.90;;;;;;6250516;22;19908;-88
2023/07/07 11:50:47;;;;;;;;;;;32.30;54.40;;;;;;6250146;22;19943;-88
2023/07/07 11:53:22;;;;;;;;;;;32.30;56.40;;;;;;6275487;22;20294;-89
2023/07/07 11:56:05;;;;;;;;;;;31.10;57.00;;;;;;6275710;22;19907;-88
2023/07/07 11:58:31;;;;;;;;;;;31.00;57.60;;;;;;6249350;22;19957;-90
2023/07/07 12:01:04;;;;;;;;;;;30.80;56.40;;;;;;6249736;22;20508;-87
2023/07/07 12:03:33;;;;;;;;;;;30.40;56.50;;;;;;6301369;22;20319;-88
2023/07/07 12:06:00;;;;;;;;;;;30.40;57.00;;;;;;6277760;22;19907;-89
2023/07/07 12:08:35;;;;;;;;;;;30.70;56.60;;;;;;6277247;22;19907;-89
2023/07/07 12:11:02;;;;;;;;;;;30.80;57.00;;;;;;6251856;22;19908;-89
2023/07/07 12:13:31;;;;;;;;;;;30.50;55.30;;;;;;6251816;22;19907;-88
2023/07/07 12:16:15;;;;;;;;;;;30.60;54.40;;;;;;6277459;22;20273;-88
2023/07/07 12:18:44;;;;;;;;;;;31.10;55.90;;;;;;6277043;22;19914;-88
2023/07/07 12:21:13;;;;;;;;;;;31.30;55.40;;;;;;6277970;22;19957;-87
2023/07/07 12:23:39;;;;;;;;;;;31.50;53.60;;;;;;6277800;22;19907;-89
2023/07/07 12:26:22;;;;;;;;;;;31.50;53.00;;;;;;6277469;22;19913;-88
2023/07/07 12:28:50;;;;;;;;;;;31.60;54.70;;;;;;6277415;22;19907;-88
2023/07/07 12:31:17;;;;;;;;;;;31.80;54.30;;;;;;6276639;22;19942;-88
2023/07/07 12:33:43;;;;;;;;;;;32.50;52.60;;;;;;6251687;22;20374;-88
2023/07/07 12:36:11;;;;;;;;;;;32.80;51.50;;;;;;6277490;22;19942;-88
2023/07/07 12:38:37;;;;;;;;;;;33.10;51.00;;;;;;6276981;22;19911;-86
2023/07/07 12:41:04;;;;;;;;;;;33.50;51.20;;;;;;6276742;22;19914;-87
2023/07/07 12:43:38;;;;;;;;;;;33.80;51.00;;;;;;6277520;22;20235;-86
2023/07/07 12:46:06;;;;;;;;;;;33.60;50.60;;;;;;6302746;22;19911;-86
2023/07/07 12:48:32;;;;;;;;;;;34.20;49.30;;;;;;6277076;22;20315;-86
2023/07/07 12:51:00;;;;;;;;;;;34.60;48.90;;;;;;6277055;22;19957;-88
2023/07/07 12:53:29;;;;;;;;;;;34.90;49.40;;;;;;6277160;22;19911;-88
2023/07/07 12:56:06;;;;;;;;;;;33.90;47.90;;;;;;6277436;22;20393;-88
2023/07/07 12:58:38;;;;;;;;;;;33.90;49.30;;;;;;6252025;22;19911;-88
2023/07/07 13:01:05;;;;;;;;;;;34.20;49.10;;;;;;6251535;22;19948;-88
2023/07/07 13:03:31;;;;;;;;;;;34.50;49.10;;;;;;6276971;22;19922;-88
2023/07/07 13:06:00;;;;;;;;;;;34.30;47.90;;;;;;6276233;22;19915;-88
2023/07/07 13:08:44;;;;;;;;;;;33.40;49.10;;;;;;6276777;22;19934;-87
2023/07/07 13:11:26;;;;;;;;;;;33.40;48.70;;;;;;6276876;22;19914;-88
2023/07/07 13:13:52;;;;;;;;;;;33.50;49.00;;;;;;6277286;22;19959;-89
2023/07/07 13:16:19;;;;;;;;;;;33.90;46.60;;;;;;6276212;22;20624;-85
2023/07/07 13:18:45;;;;;;;;;;;34.20;45.90;;;;;;6276240;22;19914;-85
2023/07/07 13:21:12;;;;;;;;;;;34.60;46.10;;;;;;6276634;22;19942;-85
2023/07/07 13:23:40;;;;;;;;;;;34.70;46.40;;;;;;6302561;22;19942;-86
2023/07/07 13:26:20;;;;;;;;;;;35.00;46.20;;;;;;6277598;22;19942;-86
2023/07/07 13:29:10;;;;;;;;;;;34.80;46.90;;;;;;6276711;22;20235;-85
2023/07/07 13:31:38;;;;;;;;;;;34.90;46.90;;;;;;6275042;22;19919;-82
2023/07/07 13:34:04;;;;;;;;;;;35.00;43.60;;;;;;6301226;22;19911;-83
2023/07/07 13:36:29;;;;;;;;;;;34.30;43.30;;;;;;6275257;22;19911;-83
2023/07/07 13:38:56;;;;;;;;;;;34.50;43.50;;;;;;6275483;22;20015;-83
2023/07/07 13:41:22;;;;;;;;;;;34.80;43.30;;;;;;6274870;22;19915;-83
2023/07/07 13:43:48;;;;;;;;;;;34.80;43.00;;;;;;6275767;22;19934;-83
2023/07/07 13:46:32;;;;;;;;;;;34.70;42.60;;;;;;6301320;22;19911;-83
2023/07/07 13:49:02;;;;;;;;;;;34.30;41.60;;;;;;6276018;22;19934;-84
2023/07/07 13:51:28;;;;;;;;;;;34.20;42.70;;;;;;6276840;22;19918;-82
2023/07/07 13:53:54;;;;;;;;;;;34.50;42.40;;;;;;6276030;22;20322;-83
2023/07/07 13:56:20;;;;;;;;;;;34.90;44.00;;;;;;6275733;22;19990;-82
2023/07/07 13:58:49;;;;;;;;;;;34.90;44.60;;;;;;6275889;22;19996;-83
2023/07/07 14:01:25;;;;;;;;;;;34.80;43.90;;;;;;6276695;22;19915;-83
2023/07/07 14:03:57;;;;;;;;;;;35.00;44.60;;;;;;6276150;22;20323;-88
2023/07/07 14:06:24;;;;;;;;;;;34.60;43.30;;;;;;6276127;22;19949;-84
2023/07/07 14:08:51;;;;;;;;;;;35.00;43.20;;;;;;6276772;22;19907;-83
2023/07/07 14:11:22;;;;;;;;;;;35.00;42.30;;;;;;6301138;22;20303;-84
2023/07/07 14:13:55;;;;;;;;;;;35.20;42.10;;;;;;6275639;22;19977;-84
2023/07/07 14:16:24;;;;;;;;;;;35.10;45.00;;;;;;6277300;22;19911;-85
2023/07/07 14:19:12;;;;;;;;;;;35.80;43.40;;;;;;6275172;22;19914;-84
2023/07/07 14:21:38;;;;;;;;;;;36.50;42.90;;;;;;6275929;22;19911;-83
2023/07/07 14:24:04;;;;;;;;;;;36.80;41.90;;;;;;6277066;22;19922;-84
2023/07/07 14:26:30;;;;;;;;;;;37.30;42.40;;;;;;6274938;22;19907;-83
2023/07/07 14:28:56;;;;;;;;;;;37.10;42.00;;;;;;6301046;22;19958;-83
2023/07/07 14:31:22;;;;;;;;;;;36.50;42.90;;;;;;6275532;22;19908;-84
2023/07/07 14:33:54;;;;;;;;;;;36.20;43.00;;;;;;6275410;22;19911;-83
2023/07/07 14:36:25;;;;;;;;;;;35.70;44.30;;;;;;6275589;22;20364;-83
2023/07/07 14:38:53;;;;;;;;;;;34.60;43.30;;;;;;6276190;22;19960;-83
2023/07/07 14:41:23;;;;;;;;;;;34.50;44.50;;;;;;6274795;22;19907;-83
2023/07/07 14:43:49;;;;;;;;;;;33.60;44.70;;;;;;6249353;22;19982;-83
2023/07/07 14:46:37;;;;;;;;;;;33.30;45.00;;;;;;6274694;22;19913;-83